createdAt,value
2022-08-31T00:00:28.658Z,1003.49
2022-08-31T00:01:28.677Z,1003.48
2022-08-31T00:02:28.665Z,1003.48
2022-08-31T00:03:28.617Z,1003.51
2022-08-31T00:04:28.636Z,1003.49
2022-08-31T00:05:28.601Z,1003.49
2022-08-31T00:06:28.600Z,1003.52
2022-08-31T00:07:28.566Z,1003.47
2022-08-31T00:08:28.592Z,1003.51
2022-08-31T00:09:28.537Z,1003.50
2022-08-31T00:10:32.287Z,1003.51
2022-08-31T00:11:28.536Z,1003.46
2022-08-31T00:12:28.500Z,1003.51
2022-08-31T00:13:28.502Z,1003.49
2022-08-31T00:14:28.480Z,1003.51
2022-08-31T00:15:28.451Z,1003.52
2022-08-31T00:16:28.500Z,1003.49
2022-08-31T00:17:28.440Z,1003.49
2022-08-31T00:18:28.429Z,1003.47
2022-08-31T00:19:28.401Z,1003.50
2022-08-31T00:20:33.416Z,1003.50
2022-08-31T00:21:29.400Z,1003.51
2022-08-31T00:22:28.369Z,1003.48
2022-08-31T00:23:28.361Z,1003.46
2022-08-31T00:24:28.340Z,1003.50
2022-08-31T00:25:28.325Z,1003.48
2022-08-31T00:26:28.341Z,1003.48
2022-08-31T00:27:28.353Z,1003.45
2022-08-31T00:28:28.321Z,1003.46
2022-08-31T00:29:28.270Z,1003.44
2022-08-31T00:30:28.252Z,1003.46
2022-08-31T00:31:28.291Z,1003.47
2022-08-31T00:32:28.928Z,1003.44
2022-08-31T00:33:28.212Z,1003.49
2022-08-31T00:34:28.211Z,1003.45
2022-08-31T00:35:28.194Z,1003.47
2022-08-31T00:36:28.189Z,1003.43
2022-08-31T00:37:28.184Z,1003.41
2022-08-31T00:38:28.160Z,1003.44
2022-08-31T00:39:28.142Z,1003.45
2022-08-31T00:40:28.275Z,1003.41
2022-08-31T00:41:28.114Z,1003.45
2022-08-31T00:42:28.137Z,1003.43
2022-08-31T00:43:28.135Z,1003.45
2022-08-31T00:44:28.081Z,1003.44
2022-08-31T00:45:28.141Z,1003.46
2022-08-31T00:46:28.052Z,1003.44
2022-08-31T00:47:28.062Z,1003.43
2022-08-31T00:48:28.032Z,1003.44
2022-08-31T00:49:28.005Z,1003.43
2022-08-31T00:50:28.016Z,1003.42
2022-08-31T00:51:27.975Z,1003.47
2022-08-31T00:52:28.016Z,1003.43
2022-08-31T00:53:28.956Z,1003.41
2022-08-31T00:54:27.944Z,1003.41
2022-08-31T00:55:27.927Z,1003.40
2022-08-31T00:56:27.926Z,1003.41
2022-08-31T00:57:34.403Z,1003.39
2022-08-31T00:58:28.886Z,1003.40
2022-08-31T00:59:27.877Z,1003.37
2022-08-31T01:00:27.864Z,1003.39
2022-08-31T01:01:27.977Z,1003.35
2022-08-31T01:02:27.917Z,1003.36
2022-08-31T01:03:27.827Z,1003.34
2022-08-31T01:04:27.807Z,1003.31
2022-08-31T01:05:27.786Z,1003.34
2022-08-31T01:06:27.817Z,1003.33
2022-08-31T01:07:27.789Z,1003.33
2022-08-31T01:08:30.937Z,1003.31
2022-08-31T01:09:27.736Z,1003.31
2022-08-31T01:10:27.751Z,1003.28
2022-08-31T01:11:27.717Z,1003.26
2022-08-31T01:12:27.721Z,1003.31
2022-08-31T01:13:27.686Z,1003.28
2022-08-31T01:14:27.678Z,1003.29
2022-08-31T01:15:27.655Z,1003.34
2022-08-31T01:16:27.699Z,1003.33
2022-08-31T01:17:27.658Z,1003.36
2022-08-31T01:18:27.619Z,1003.37
2022-08-31T01:19:27.616Z,1003.33
2022-08-31T01:20:27.603Z,1003.38
2022-08-31T01:21:27.578Z,1003.44
2022-08-31T01:22:27.589Z,1003.43
2022-08-31T01:23:27.561Z,1003.41
2022-08-31T01:24:27.546Z,1003.43
2022-08-31T01:25:33.346Z,1003.47
2022-08-31T01:26:28.510Z,1003.44
2022-08-31T01:27:27.519Z,1003.44
2022-08-31T01:28:27.489Z,1003.46
2022-08-31T01:29:27.462Z,1003.47
2022-08-31T01:30:27.463Z,1003.46
2022-08-31T01:31:27.484Z,1003.45
2022-08-31T01:32:27.450Z,1003.49
2022-08-31T01:33:27.419Z,1003.41
2022-08-31T01:34:27.410Z,1003.45
2022-08-31T01:35:27.391Z,1003.45
2022-08-31T01:36:27.384Z,1003.42
2022-08-31T01:37:29.422Z,1003.44
2022-08-31T01:38:27.363Z,1003.44
2022-08-31T01:39:27.341Z,1003.43
2022-08-31T01:40:27.371Z,1003.48
2022-08-31T01:41:27.310Z,1003.45
2022-08-31T01:42:33.276Z,1003.46
2022-08-31T01:43:28.280Z,1003.46
2022-08-31T01:44:27.270Z,1003.46
2022-08-31T01:45:27.253Z,1003.45
2022-08-31T01:46:27.291Z,1003.51
2022-08-31T01:47:27.242Z,1003.50
2022-08-31T01:48:27.223Z,1003.50
2022-08-31T01:49:27.223Z,1003.56
2022-08-31T01:50:27.192Z,1003.59
2022-08-31T01:51:27.173Z,1003.58
2022-08-31T01:52:27.774Z,1003.59
2022-08-31T01:53:27.162Z,1003.57
2022-08-31T01:54:27.173Z,1003.62
2022-08-31T01:55:27.132Z,1003.61
2022-08-31T01:56:27.132Z,1003.64
2022-08-31T01:57:30.879Z,1003.63
2022-08-31T01:58:28.104Z,1003.66
2022-08-31T01:59:27.065Z,1003.72
2022-08-31T02:00:27.054Z,1003.74
2022-08-31T02:01:32.655Z,1003.78
2022-08-31T02:02:28.095Z,1003.82
2022-08-31T02:03:27.014Z,1003.84
2022-08-31T02:04:26.995Z,1003.87
2022-08-31T02:05:26.994Z,1003.90
2022-08-31T02:06:26.975Z,1003.92
2022-08-31T02:07:27.091Z,1003.92
2022-08-31T02:08:26.984Z,1003.90
2022-08-31T02:09:26.936Z,1003.93
2022-08-31T02:10:26.927Z,1003.97
2022-08-31T02:11:26.926Z,1003.99
2022-08-31T02:12:26.896Z,1003.99
2022-08-31T02:13:26.906Z,1004.00
2022-08-31T02:14:26.871Z,1003.97
2022-08-31T02:15:26.846Z,1003.99
2022-08-31T02:16:26.889Z,1003.99
2022-08-31T02:17:26.835Z,1004.00
2022-08-31T02:18:26.837Z,1004.00
2022-08-31T02:19:26.807Z,1003.98
2022-08-31T02:20:26.787Z,1004.00
2022-08-31T02:21:26.785Z,1003.99
2022-08-31T02:22:26.758Z,1004.02
2022-08-31T02:23:26.776Z,1004.04
2022-08-31T02:24:26.738Z,1004.07
2022-08-31T02:25:26.727Z,1004.04
2022-08-31T02:26:26.708Z,1004.07
2022-08-31T02:27:26.698Z,1004.08
2022-08-31T02:28:26.698Z,1004.11
2022-08-31T02:29:26.669Z,1004.11
2022-08-31T02:30:26.666Z,1004.10
2022-08-31T02:31:26.705Z,1004.13
2022-08-31T02:32:26.629Z,1004.12
2022-08-31T02:33:26.629Z,1004.14
2022-08-31T02:34:26.601Z,1004.12
2022-08-31T02:35:26.592Z,1004.17
2022-08-31T02:36:26.590Z,1004.15
2022-08-31T02:37:26.567Z,1004.22
2022-08-31T02:38:26.645Z,1004.21
2022-08-31T02:39:26.539Z,1004.21
2022-08-31T02:40:26.550Z,1004.25
2022-08-31T02:41:26.510Z,1004.26
2022-08-31T02:42:30.005Z,1004.28
2022-08-31T02:43:27.583Z,1004.30
2022-08-31T02:44:26.460Z,1004.29
2022-08-31T02:45:26.461Z,1004.29
2022-08-31T02:46:26.463Z,1004.26
2022-08-31T02:47:26.431Z,1004.26
2022-08-31T02:48:26.433Z,1004.24
2022-08-31T02:49:26.904Z,1004.26
2022-08-31T02:50:26.388Z,1004.27
2022-08-31T02:51:26.379Z,1004.28
2022-08-31T02:52:26.360Z,1004.30
2022-08-31T02:53:26.361Z,1004.31
2022-08-31T02:54:26.321Z,1004.32
2022-08-31T02:55:26.321Z,1004.32
2022-08-31T02:56:26.302Z,1004.31
2022-08-31T02:57:26.301Z,1004.36
2022-08-31T02:58:26.329Z,1004.36
2022-08-31T02:59:26.270Z,1004.40
2022-08-31T03:00:26.252Z,1004.39
2022-08-31T03:01:26.294Z,1004.37
2022-08-31T03:02:31.854Z,1004.39
2022-08-31T03:03:27.233Z,1004.36
2022-08-31T03:04:26.194Z,1004.35
2022-08-31T03:05:26.192Z,1004.34
2022-08-31T03:06:26.163Z,1004.35
2022-08-31T03:07:26.163Z,1004.38
2022-08-31T03:08:26.163Z,1004.39
2022-08-31T03:09:26.141Z,1004.41
2022-08-31T03:10:26.113Z,1004.41
2022-08-31T03:11:26.103Z,1004.43
2022-08-31T03:12:26.085Z,1004.46
2022-08-31T03:13:26.083Z,1004.47
2022-08-31T03:14:26.083Z,1004.46
2022-08-31T03:15:26.053Z,1004.46
2022-08-31T03:16:26.103Z,1004.45
2022-08-31T03:17:26.026Z,1004.46
2022-08-31T03:18:26.044Z,1004.44
2022-08-31T03:19:26.025Z,1004.43
2022-08-31T03:20:25.975Z,1004.44
2022-08-31T03:21:25.974Z,1004.43
2022-08-31T03:22:25.964Z,1004.43
2022-08-31T03:23:25.947Z,1004.40
2022-08-31T03:24:27.045Z,1004.46
2022-08-31T03:25:25.915Z,1004.43
2022-08-31T03:26:25.896Z,1004.40
2022-08-31T03:27:25.895Z,1004.41
2022-08-31T03:28:25.876Z,1004.39
2022-08-31T03:29:25.877Z,1004.44
2022-08-31T03:30:25.847Z,1004.45
2022-08-31T03:31:25.914Z,1004.45
2022-08-31T03:32:25.796Z,1004.43
2022-08-31T03:33:25.807Z,1004.44
2022-08-31T03:34:25.806Z,1004.42
2022-08-31T03:35:25.777Z,1004.43
2022-08-31T03:36:25.766Z,1004.40
2022-08-31T03:37:25.746Z,1004.36
2022-08-31T03:38:25.737Z,1004.39
2022-08-31T03:39:25.746Z,1004.36
2022-08-31T03:40:25.787Z,1004.38
2022-08-31T03:41:25.697Z,1004.37
2022-08-31T03:42:25.687Z,1004.40
2022-08-31T03:43:25.668Z,1004.40
2022-08-31T03:44:25.685Z,1004.38
2022-08-31T03:45:25.654Z,1004.39
2022-08-31T03:46:25.718Z,1004.39
2022-08-31T03:47:28.314Z,1004.38
2022-08-31T03:48:25.608Z,1004.39
2022-08-31T03:49:25.607Z,1004.40
2022-08-31T03:50:25.580Z,1004.40
2022-08-31T03:51:25.559Z,1004.42
2022-08-31T03:52:25.562Z,1004.44
2022-08-31T03:53:25.704Z,1004.45
2022-08-31T03:54:25.538Z,1004.45
2022-08-31T03:55:25.507Z,1004.43
2022-08-31T03:56:25.499Z,1004.43
2022-08-31T03:57:25.479Z,1004.43
2022-08-31T03:58:25.472Z,1004.48
2022-08-31T03:59:25.470Z,1004.45
2022-08-31T04:00:25.448Z,1004.42
2022-08-31T04:01:25.527Z,1004.45
2022-08-31T04:02:25.478Z,1004.42
2022-08-31T04:03:25.400Z,1004.43
2022-08-31T04:04:25.410Z,1004.45
2022-08-31T04:05:25.370Z,1004.44
2022-08-31T04:06:25.361Z,1004.49
2022-08-31T04:07:25.329Z,1004.46
2022-08-31T04:08:25.349Z,1004.47
2022-08-31T04:09:25.329Z,1004.47
2022-08-31T04:10:25.460Z,1004.42
2022-08-31T04:11:44.887Z,1004.46
2022-08-31T04:12:26.279Z,1004.45
2022-08-31T04:13:29.918Z,1004.50
2022-08-31T04:14:26.267Z,1004.46
2022-08-31T04:15:25.251Z,1004.47
2022-08-31T04:16:25.315Z,1004.49
2022-08-31T04:17:25.201Z,1004.48
2022-08-31T04:18:25.206Z,1004.46
2022-08-31T04:19:25.189Z,1004.50
2022-08-31T04:20:30.092Z,1004.48
2022-08-31T04:21:26.154Z,1004.47
2022-08-31T04:22:25.141Z,1004.46
2022-08-31T04:23:25.124Z,1004.48
2022-08-31T04:24:25.144Z,1004.49
2022-08-31T04:25:25.174Z,1004.54
2022-08-31T04:26:25.093Z,1004.51
2022-08-31T04:27:25.078Z,1004.49
2022-08-31T04:28:25.057Z,1004.48
2022-08-31T04:29:25.040Z,1004.43
2022-08-31T04:30:25.043Z,1004.44
2022-08-31T04:31:25.041Z,1004.45
2022-08-31T04:32:25.008Z,1004.43
2022-08-31T04:33:24.991Z,1004.42
2022-08-31T04:34:24.982Z,1004.41
2022-08-31T04:35:24.969Z,1004.39
2022-08-31T04:36:24.944Z,1004.42
2022-08-31T04:37:24.930Z,1004.42
2022-08-31T04:38:24.923Z,1004.41
2022-08-31T04:39:24.952Z,1004.41
2022-08-31T04:40:26.051Z,1004.39
2022-08-31T04:41:24.882Z,1004.39
2022-08-31T04:42:24.862Z,1004.44
2022-08-31T04:43:24.833Z,1004.41
2022-08-31T04:44:24.843Z,1004.40
2022-08-31T04:45:24.846Z,1004.46
2022-08-31T04:46:24.880Z,1004.45
2022-08-31T04:47:24.805Z,1004.51
2022-08-31T04:48:24.920Z,1004.49
2022-08-31T04:49:24.803Z,1004.52
2022-08-31T04:50:24.795Z,1004.49
2022-08-31T04:51:24.755Z,1004.53
2022-08-31T04:52:24.754Z,1004.46
2022-08-31T04:53:24.726Z,1004.49
2022-08-31T04:54:24.726Z,1004.51
2022-08-31T04:55:24.740Z,1004.50
2022-08-31T04:56:24.685Z,1004.53
2022-08-31T04:57:24.681Z,1004.49
2022-08-31T04:58:24.675Z,1004.51
2022-08-31T04:59:24.648Z,1004.49
2022-08-31T05:00:24.666Z,1004.53
2022-08-31T05:01:24.670Z,1004.51
2022-08-31T05:02:24.684Z,1004.50
2022-08-31T05:03:24.597Z,1004.54
2022-08-31T05:04:24.618Z,1004.49
2022-08-31T05:05:24.588Z,1004.53
2022-08-31T05:06:24.558Z,1004.53
2022-08-31T05:07:24.547Z,1004.51
2022-08-31T05:08:24.530Z,1004.52
2022-08-31T05:09:24.524Z,1004.51
2022-08-31T05:10:24.519Z,1004.51
2022-08-31T05:11:25.192Z,1004.49
2022-08-31T05:12:24.480Z,1004.52
2022-08-31T05:13:24.467Z,1004.49
2022-08-31T05:14:24.453Z,1004.50
2022-08-31T05:15:24.456Z,1004.52
2022-08-31T05:16:24.509Z,1004.51
2022-08-31T05:17:24.410Z,1004.48
2022-08-31T05:18:24.389Z,1004.49
2022-08-31T05:19:24.389Z,1004.49
2022-08-31T05:20:24.398Z,1004.49
2022-08-31T05:21:24.393Z,1004.50
2022-08-31T05:22:24.349Z,1004.51
2022-08-31T05:23:24.457Z,1004.48
2022-08-31T05:24:24.834Z,1004.51
2022-08-31T05:25:24.332Z,1004.50
2022-08-31T05:26:26.706Z,1004.51
2022-08-31T05:27:24.279Z,1004.51
2022-08-31T05:28:24.280Z,1004.50
2022-08-31T05:29:24.258Z,1004.48
2022-08-31T05:30:24.252Z,1004.52
2022-08-31T05:31:24.278Z,1004.52
2022-08-31T05:32:24.217Z,1004.57
2022-08-31T05:33:24.202Z,1004.54
2022-08-31T05:34:24.186Z,1004.53
2022-08-31T05:35:25.041Z,1004.56
2022-08-31T05:36:24.157Z,1004.58
2022-08-31T05:37:24.367Z,1004.57
2022-08-31T05:38:24.134Z,1004.54
2022-08-31T05:39:24.129Z,1004.55
2022-08-31T05:40:24.171Z,1004.60
2022-08-31T05:41:24.098Z,1004.55
2022-08-31T05:42:24.091Z,1004.53
2022-08-31T05:43:24.063Z,1004.55
2022-08-31T05:44:28.710Z,1004.52
2022-08-31T05:45:25.081Z,1004.54
2022-08-31T05:46:24.064Z,1004.56
2022-08-31T05:47:24.014Z,1004.54
2022-08-31T05:48:24.011Z,1004.50
2022-08-31T05:49:28.091Z,1004.53
2022-08-31T05:50:24.002Z,1004.55
2022-08-31T05:51:23.963Z,1004.56
2022-08-31T05:52:25.025Z,1004.58
2022-08-31T05:53:23.942Z,1004.60
2022-08-31T05:54:23.922Z,1004.63
2022-08-31T05:55:23.931Z,1004.64
2022-08-31T05:56:23.902Z,1004.60
2022-08-31T05:57:26.652Z,1004.61
2022-08-31T05:58:23.872Z,1004.65
2022-08-31T05:59:23.873Z,1004.61
2022-08-31T06:00:23.871Z,1004.61
2022-08-31T06:01:23.944Z,1004.62
2022-08-31T06:02:23.823Z,1004.59
2022-08-31T06:03:23.812Z,1004.64
2022-08-31T06:04:23.792Z,1004.65
2022-08-31T06:05:23.828Z,1004.68
2022-08-31T06:06:23.764Z,1004.67
2022-08-31T06:07:23.750Z,1004.66
2022-08-31T06:08:27.249Z,1004.68
2022-08-31T06:09:23.723Z,1004.68
2022-08-31T06:10:23.744Z,1004.70
2022-08-31T06:11:23.694Z,1004.68
2022-08-31T06:12:23.685Z,1004.72
2022-08-31T06:13:23.685Z,1004.73
2022-08-31T06:14:23.858Z,1004.72
2022-08-31T06:15:23.664Z,1004.73
2022-08-31T06:16:23.684Z,1004.73
2022-08-31T06:17:23.616Z,1004.71
2022-08-31T06:18:23.603Z,1004.73
2022-08-31T06:19:23.583Z,1004.75
2022-08-31T06:20:23.594Z,1004.74
2022-08-31T06:21:23.575Z,1004.78
2022-08-31T06:22:23.561Z,1004.76
2022-08-31T06:23:23.638Z,1004.77
2022-08-31T06:24:23.528Z,1004.73
2022-08-31T06:25:23.495Z,1004.74
2022-08-31T06:26:23.522Z,1004.76
2022-08-31T06:27:23.475Z,1004.76
2022-08-31T06:28:23.466Z,1004.78
2022-08-31T06:29:23.484Z,1004.76
2022-08-31T06:30:23.485Z,1004.78
2022-08-31T06:31:23.515Z,1004.79
2022-08-31T06:32:23.437Z,1004.78
2022-08-31T06:33:23.409Z,1004.78
2022-08-31T06:34:23.426Z,1004.81
2022-08-31T06:35:23.377Z,1004.82
2022-08-31T06:36:23.376Z,1004.81
2022-08-31T06:37:23.358Z,1004.80
2022-08-31T06:38:23.337Z,1004.77
2022-08-31T06:39:23.328Z,1004.82
2022-08-31T06:40:23.350Z,1004.79
2022-08-31T06:41:23.315Z,1004.80
2022-08-31T06:42:23.287Z,1004.77
2022-08-31T06:43:23.267Z,1004.81
2022-08-31T06:44:23.260Z,1004.79
2022-08-31T06:45:23.357Z,1004.79
2022-08-31T06:46:23.298Z,1004.78
2022-08-31T06:47:24.224Z,1004.78
2022-08-31T06:48:23.217Z,1004.79
2022-08-31T06:49:23.199Z,1004.83
2022-08-31T06:50:23.213Z,1004.86
2022-08-31T06:51:23.188Z,1004.84
2022-08-31T06:52:23.171Z,1004.86
2022-08-31T06:53:23.148Z,1004.89
2022-08-31T06:54:30.823Z,1004.91
2022-08-31T06:55:24.139Z,1004.91
2022-08-31T06:56:23.130Z,1004.89
2022-08-31T06:57:23.086Z,1004.92
2022-08-31T06:58:23.089Z,1004.95
2022-08-31T06:59:26.530Z,1004.92
2022-08-31T07:00:24.059Z,1004.91
2022-08-31T07:01:35.381Z,1004.94
2022-08-31T07:02:24.055Z,1004.93
2022-08-31T07:03:23.036Z,1004.98
2022-08-31T07:04:23.003Z,1004.96
2022-08-31T07:05:24.712Z,1004.99
2022-08-31T07:06:22.988Z,1005.02
2022-08-31T07:07:22.957Z,1005.01
2022-08-31T07:08:22.950Z,1005.02
2022-08-31T07:09:22.978Z,1005.00
2022-08-31T07:10:22.930Z,1005.01
2022-08-31T07:11:22.921Z,1005.02
2022-08-31T07:12:22.924Z,1005.06
2022-08-31T07:13:22.872Z,1005.04
2022-08-31T07:14:22.871Z,1005.05
2022-08-31T07:15:22.853Z,1005.06
2022-08-31T07:16:22.964Z,1005.03
2022-08-31T07:17:22.833Z,1005.04
2022-08-31T07:18:22.825Z,1005.01
2022-08-31T07:19:22.793Z,1005.04
2022-08-31T07:20:22.809Z,1005.02
2022-08-31T07:21:22.785Z,1005.02
2022-08-31T07:22:22.774Z,1005.02
2022-08-31T07:23:22.743Z,1005.04
2022-08-31T07:24:22.739Z,1005.03
2022-08-31T07:25:22.733Z,1005.02
2022-08-31T07:26:22.772Z,1005.01
2022-08-31T07:27:22.704Z,1005.03
2022-08-31T07:28:22.683Z,1005.04
2022-08-31T07:29:22.697Z,1005.05
2022-08-31T07:30:22.664Z,1005.02
2022-08-31T07:31:22.760Z,1005.03
2022-08-31T07:32:22.636Z,1004.99
2022-08-31T07:33:22.615Z,1004.98
2022-08-31T07:34:22.614Z,1005.00
2022-08-31T07:35:22.584Z,1005.00
2022-08-31T07:36:22.592Z,1005.05
2022-08-31T07:37:22.554Z,1004.99
2022-08-31T07:38:22.552Z,1005.02
2022-08-31T07:39:22.584Z,1005.03
2022-08-31T07:40:22.610Z,1005.05
2022-08-31T07:41:22.555Z,1005.03
2022-08-31T07:42:22.496Z,1005.05
2022-08-31T07:43:22.475Z,1005.06
2022-08-31T07:44:22.635Z,1005.09
2022-08-31T07:45:22.947Z,1005.07
2022-08-31T07:46:22.500Z,1005.07
2022-08-31T07:47:22.821Z,1005.06
2022-08-31T07:48:22.404Z,1005.07
2022-08-31T07:49:22.379Z,1005.10
2022-08-31T07:50:22.491Z,1005.12
2022-08-31T07:51:22.367Z,1005.11
2022-08-31T07:52:22.344Z,1005.12
2022-08-31T07:53:22.501Z,1005.13
2022-08-31T07:54:22.324Z,1005.10
2022-08-31T07:55:22.317Z,1005.12
2022-08-31T07:56:23.787Z,1005.15
2022-08-31T07:57:22.293Z,1005.15
2022-08-31T07:58:22.273Z,1005.17
2022-08-31T07:59:22.264Z,1005.18
2022-08-31T08:00:22.265Z,1005.18
2022-08-31T08:01:22.305Z,1005.20
2022-08-31T08:02:22.296Z,1005.17
2022-08-31T08:05:44.577Z,1005.22
2022-08-31T08:06:44.555Z,1005.24
2022-08-31T08:07:44.547Z,1005.22
2022-08-31T08:08:57.045Z,1005.28
2022-08-31T08:09:45.512Z,1005.25
2022-08-31T08:10:46.804Z,1005.29
2022-08-31T08:11:45.495Z,1005.25
2022-08-31T08:12:44.472Z,1005.24
2022-08-31T08:13:44.492Z,1005.30
2022-08-31T08:14:44.438Z,1005.25
2022-08-31T08:15:44.535Z,1005.27
2022-08-31T08:16:44.484Z,1005.30
2022-08-31T08:17:44.419Z,1005.27
2022-08-31T08:18:44.401Z,1005.32
2022-08-31T08:19:44.379Z,1005.34
2022-08-31T08:20:44.379Z,1005.33
2022-08-31T08:21:44.410Z,1005.34
2022-08-31T08:22:55.064Z,1005.34
2022-08-31T08:23:45.339Z,1005.38
2022-08-31T08:24:44.351Z,1005.39
2022-08-31T08:25:44.319Z,1005.36
2022-08-31T08:26:44.322Z,1005.40
2022-08-31T08:27:44.299Z,1005.42
2022-08-31T08:28:44.279Z,1005.44
2022-08-31T08:29:44.260Z,1005.41
2022-08-31T08:30:44.248Z,1005.43
2022-08-31T08:31:44.341Z,1005.42
2022-08-31T08:32:44.241Z,1005.43
2022-08-31T08:33:44.218Z,1005.48
2022-08-31T08:34:44.183Z,1005.45
2022-08-31T08:35:44.181Z,1005.47
2022-08-31T08:36:44.182Z,1005.45
2022-08-31T08:37:57.621Z,1005.47
2022-08-31T08:38:45.138Z,1005.45
2022-08-31T08:39:44.143Z,1005.46
2022-08-31T08:40:44.150Z,1005.43
2022-08-31T08:41:44.120Z,1005.41
2022-08-31T08:42:44.082Z,1005.42
2022-08-31T08:43:44.146Z,1005.42
2022-08-31T08:44:45.060Z,1005.40
2022-08-31T08:45:44.092Z,1005.43
2022-08-31T08:46:44.442Z,1005.44
2022-08-31T08:47:44.107Z,1005.46
2022-08-31T08:48:44.012Z,1005.47
2022-08-31T08:49:44.005Z,1005.46
2022-08-31T08:50:44.016Z,1005.48
2022-08-31T08:51:44.008Z,1005.47
2022-08-31T08:52:43.954Z,1005.49
2022-08-31T08:53:43.943Z,1005.50
2022-08-31T08:54:43.933Z,1005.46
2022-08-31T08:55:43.922Z,1005.47
2022-08-31T08:56:43.903Z,1005.52
2022-08-31T08:57:43.936Z,1005.47
2022-08-31T08:58:43.873Z,1005.49
2022-08-31T08:59:43.865Z,1005.52
2022-08-31T09:00:43.859Z,1005.54
2022-08-31T09:01:43.911Z,1005.51
2022-08-31T09:02:43.888Z,1005.54
2022-08-31T09:03:43.815Z,1005.52
2022-08-31T09:04:43.784Z,1005.51
2022-08-31T09:05:43.785Z,1005.51
2022-08-31T09:06:45.815Z,1005.50
2022-08-31T09:07:43.829Z,1005.52
2022-08-31T09:08:43.744Z,1005.49
2022-08-31T09:09:43.717Z,1005.53
2022-08-31T09:10:43.731Z,1005.52
2022-08-31T09:11:43.704Z,1005.52
2022-08-31T09:12:43.696Z,1005.53
2022-08-31T09:13:43.675Z,1005.57
2022-08-31T09:14:43.646Z,1005.55
2022-08-31T09:15:43.697Z,1005.55
2022-08-31T09:16:43.636Z,1005.54
2022-08-31T09:17:43.615Z,1005.55
2022-08-31T09:18:43.591Z,1005.51
2022-08-31T09:19:43.591Z,1005.54
2022-08-31T09:20:43.568Z,1005.54
2022-08-31T09:21:43.576Z,1005.52
2022-08-31T09:22:43.536Z,1005.52
2022-08-31T09:23:43.526Z,1005.51
2022-08-31T09:24:43.527Z,1005.50
2022-08-31T09:25:43.498Z,1005.53
2022-08-31T09:26:43.507Z,1005.55
2022-08-31T09:27:43.478Z,1005.53
2022-08-31T09:28:43.459Z,1005.55
2022-08-31T09:29:43.448Z,1005.56
2022-08-31T09:30:43.444Z,1005.54
2022-08-31T09:31:43.496Z,1005.50
2022-08-31T09:32:43.410Z,1005.53
2022-08-31T09:33:43.399Z,1005.50
2022-08-31T09:34:43.378Z,1005.49
2022-08-31T09:35:43.369Z,1005.52
2022-08-31T09:36:43.369Z,1005.52
2022-08-31T09:37:43.339Z,1005.48
2022-08-31T09:38:43.309Z,1005.50
2022-08-31T09:39:43.319Z,1005.48
2022-08-31T09:40:43.405Z,1005.48
2022-08-31T09:41:43.310Z,1005.47
2022-08-31T09:42:43.269Z,1005.48
2022-08-31T09:43:43.262Z,1005.47
2022-08-31T09:44:43.249Z,1005.49
2022-08-31T09:45:43.287Z,1005.47
2022-08-31T09:46:43.220Z,1005.48
2022-08-31T09:47:43.222Z,1005.51
2022-08-31T09:48:43.195Z,1005.49
2022-08-31T09:49:43.182Z,1005.53
2022-08-31T09:50:43.160Z,1005.50
2022-08-31T09:51:43.151Z,1005.50
2022-08-31T09:52:43.140Z,1005.52
2022-08-31T09:53:43.140Z,1005.49
2022-08-31T09:54:46.893Z,1005.47
2022-08-31T09:55:43.131Z,1005.46
2022-08-31T09:56:43.111Z,1005.48
2022-08-31T09:57:43.072Z,1005.45
2022-08-31T09:58:43.063Z,1005.45
2022-08-31T09:59:43.052Z,1005.47
2022-08-31T10:00:43.034Z,1005.51
2022-08-31T10:01:43.128Z,1005.49
2022-08-31T10:02:43.004Z,1005.51
2022-08-31T10:03:42.993Z,1005.54
2022-08-31T10:04:43.020Z,1005.50
2022-08-31T10:05:42.971Z,1005.56
2022-08-31T10:06:43.011Z,1005.51
2022-08-31T10:07:42.944Z,1005.52
2022-08-31T10:08:42.923Z,1005.51
2022-08-31T10:09:42.923Z,1005.52
2022-08-31T10:10:42.891Z,1005.54
2022-08-31T10:11:42.885Z,1005.53
2022-08-31T10:12:42.885Z,1005.51
2022-08-31T10:13:42.863Z,1005.54
2022-08-31T10:14:42.850Z,1005.51
2022-08-31T10:15:42.930Z,1005.54
2022-08-31T10:16:42.841Z,1005.48
2022-08-31T10:17:43.815Z,1005.50
2022-08-31T10:18:42.791Z,1005.51
2022-08-31T10:19:42.780Z,1005.48
2022-08-31T10:20:42.755Z,1005.47
2022-08-31T10:21:42.775Z,1005.45
2022-08-31T10:22:42.746Z,1005.42
2022-08-31T10:23:42.717Z,1005.43
2022-08-31T10:24:42.711Z,1005.42
2022-08-31T10:25:42.698Z,1005.45
2022-08-31T10:26:42.677Z,1005.44
2022-08-31T10:27:42.694Z,1005.46
2022-08-31T10:28:42.657Z,1005.46
2022-08-31T10:29:42.645Z,1005.43
2022-08-31T10:30:42.663Z,1005.49
2022-08-31T10:31:42.617Z,1005.45
2022-08-31T10:32:42.643Z,1005.46
2022-08-31T10:33:42.597Z,1005.45
2022-08-31T10:34:42.567Z,1005.48
2022-08-31T10:35:42.577Z,1005.45
2022-08-31T10:36:42.542Z,1005.48
2022-08-31T10:37:42.556Z,1005.50
2022-08-31T10:38:42.527Z,1005.50
2022-08-31T10:39:42.507Z,1005.49
2022-08-31T10:40:42.519Z,1005.53
2022-08-31T10:41:42.478Z,1005.50
2022-08-31T10:42:42.486Z,1005.48
2022-08-31T10:43:42.449Z,1005.53
2022-08-31T10:44:49.843Z,1005.50
2022-08-31T10:45:43.423Z,1005.51
2022-08-31T10:46:42.449Z,1005.51
2022-08-31T10:47:42.429Z,1005.52
2022-08-31T10:48:42.379Z,1005.41
2022-08-31T10:49:43.380Z,1005.38
2022-08-31T10:50:42.365Z,1005.45
2022-08-31T10:51:42.343Z,1005.43
2022-08-31T10:52:42.352Z,1005.41
2022-08-31T10:53:42.323Z,1005.39
2022-08-31T10:54:42.303Z,1005.38
2022-08-31T10:55:42.290Z,1005.40
2022-08-31T10:56:42.333Z,1005.39
2022-08-31T10:57:42.276Z,1005.39
2022-08-31T10:58:42.275Z,1005.41
2022-08-31T10:59:45.911Z,1005.40
2022-08-31T11:00:42.218Z,1005.39
2022-08-31T11:01:42.257Z,1005.37
2022-08-31T11:02:42.201Z,1005.37
2022-08-31T11:03:42.200Z,1005.39
2022-08-31T11:04:42.217Z,1005.35
2022-08-31T11:05:42.151Z,1005.35
2022-08-31T11:06:42.141Z,1005.39
2022-08-31T11:07:42.141Z,1005.41
2022-08-31T11:08:42.135Z,1005.39
2022-08-31T11:09:42.105Z,1005.41
2022-08-31T11:10:42.094Z,1005.42
2022-08-31T11:11:42.495Z,1005.33
2022-08-31T11:12:42.062Z,1005.33
2022-08-31T11:13:45.144Z,1005.31
2022-08-31T11:14:43.044Z,1005.34
2022-08-31T11:15:42.091Z,1005.31
2022-08-31T11:16:42.069Z,1005.32
2022-08-31T11:17:41.989Z,1005.31
2022-08-31T11:18:41.984Z,1005.30
2022-08-31T11:19:41.993Z,1005.30
2022-08-31T11:20:41.970Z,1005.32
2022-08-31T11:21:41.957Z,1005.35
2022-08-31T11:22:41.934Z,1005.34
2022-08-31T11:23:43.042Z,1005.36
2022-08-31T11:24:41.979Z,1005.38
2022-08-31T11:25:41.887Z,1005.38
2022-08-31T11:26:41.884Z,1005.37
2022-08-31T11:27:41.864Z,1005.39
2022-08-31T11:28:42.415Z,1005.41
2022-08-31T11:29:41.846Z,1005.39
2022-08-31T11:30:42.247Z,1005.39
2022-08-31T11:31:41.945Z,1005.37
2022-08-31T11:32:41.786Z,1005.36
2022-08-31T11:33:55.282Z,1005.34
2022-08-31T11:34:42.787Z,1005.38
2022-08-31T11:35:42.206Z,1005.34
2022-08-31T11:36:41.747Z,1005.34
2022-08-31T11:37:41.737Z,1005.35
2022-08-31T11:38:41.715Z,1005.31
2022-08-31T11:39:41.719Z,1005.34
2022-08-31T11:40:41.986Z,1005.35
2022-08-31T11:41:41.680Z,1005.36
2022-08-31T11:42:41.657Z,1005.31
2022-08-31T11:43:41.650Z,1005.29
2022-08-31T11:44:41.680Z,1005.27
2022-08-31T11:45:41.677Z,1005.29
2022-08-31T11:46:41.656Z,1005.24
2022-08-31T11:47:41.588Z,1005.24
2022-08-31T11:48:41.583Z,1005.25
2022-08-31T11:49:41.585Z,1005.22
2022-08-31T11:50:41.567Z,1005.21
2022-08-31T11:51:41.935Z,1005.16
2022-08-31T11:52:41.538Z,1005.15
2022-08-31T11:53:41.530Z,1005.13
2022-08-31T11:54:41.527Z,1005.12
2022-08-31T11:55:41.476Z,1005.12
2022-08-31T11:56:41.487Z,1005.11
2022-08-31T11:57:41.468Z,1005.10
2022-08-31T11:58:41.448Z,1005.04
2022-08-31T11:59:41.449Z,1005.06
2022-08-31T12:00:41.422Z,1005.04
2022-08-31T12:01:41.451Z,1005.04
2022-08-31T12:02:41.457Z,1005.02
2022-08-31T12:03:41.380Z,1004.96
2022-08-31T12:04:41.391Z,1004.99
2022-08-31T12:05:41.391Z,1005.01
2022-08-31T12:06:41.342Z,1004.99
2022-08-31T12:07:41.330Z,1004.98